sensor_id;sensor_type;location;lat;lon;timestamp;temperature;humidity
12622;DHT22;6376;48.182;-1.644;2024-03-22T00:01:58;14.60;93.40
12622;DHT22;6376;48.182;-1.644;2024-03-22T00:04:25;14.50;93.40
12622;DHT22;6376;48.182;-1.644;2024-03-22T00:06:51;14.50;93.40
12622;DHT22;6376;48.182;-1.644;2024-03-22T00:09:17;14.50;93.40
12622;DHT22;6376;48.182;-1.644;2024-03-22T00:11:43;14.50;93.40
12622;DHT22;6376;48.182;-1.644;2024-03-22T00:14:10;14.50;93.40
12622;DHT22;6376;48.182;-1.644;2024-03-22T00:16:36;14.50;93.50
12622;DHT22;6376;48.182;-1.644;2024-03-22T00:19:02;14.50;93.50
12622;DHT22;6376;48.182;-1.644;2024-03-22T00:21:28;14.50;93.50
12622;DHT22;6376;48.182;-1.644;2024-03-22T00:23:55;14.50;93.50
12622;DHT22;6376;48.182;-1.644;2024-03-22T00:26:20;14.50;93.50
12622;DHT22;6376;48.182;-1.644;2024-03-22T00:28:47;14.50;93.50
12622;DHT22;6376;48.182;-1.644;2024-03-22T00:31:12;14.50;93.50
12622;DHT22;6376;48.182;-1.644;2024-03-22T00:33:38;14.50;93.50
12622;DHT22;6376;48.182;-1.644;2024-03-22T00:36:04;14.50;93.50
12622;DHT22;6376;48.182;-1.644;2024-03-22T00:38:29;14.40;93.60
12622;DHT22;6376;48.182;-1.644;2024-03-22T00:40:55;14.40;93.60
12622;DHT22;6376;48.182;-1.644;2024-03-22T00:43:21;14.40;93.60
12622;DHT22;6376;48.182;-1.644;2024-03-22T00:45:47;14.40;93.50
12622;DHT22;6376;48.182;-1.644;2024-03-22T00:48:13;14.40;93.40
12622;DHT22;6376;48.182;-1.644;2024-03-22T00:50:39;14.40;93.50
12622;DHT22;6376;48.182;-1.644;2024-03-22T00:53:04;14.40;93.60
12622;DHT22;6376;48.182;-1.644;2024-03-22T00:55:31;14.40;93.60
12622;DHT22;6376;48.182;-1.644;2024-03-22T00:57:57;14.40;93.60
12622;DHT22;6376;48.182;-1.644;2024-03-22T01:00:23;14.40;93.70
12622;DHT22;6376;48.182;-1.644;2024-03-22T01:02:50;14.40;93.70
12622;DHT22;6376;48.182;-1.644;2024-03-22T01:05:16;14.40;93.70
12622;DHT22;6376;48.182;-1.644;2024-03-22T01:07:42;14.40;93.70
12622;DHT22;6376;48.182;-1.644;2024-03-22T01:10:08;14.40;93.70
12622;DHT22;6376;48.182;-1.644;2024-03-22T01:12:34;14.40;93.70
12622;DHT22;6376;48.182;-1.644;2024-03-22T01:14:59;14.30;93.70
12622;DHT22;6376;48.182;-1.644;2024-03-22T01:17:25;14.30;93.70
12622;DHT22;6376;48.182;-1.644;2024-03-22T01:19:51;14.30;93.70
12622;DHT22;6376;48.182;-1.644;2024-03-22T01:22:17;14.30;93.70
12622;DHT22;6376;48.182;-1.644;2024-03-22T01:24:44;14.30;93.70
12622;DHT22;6376;48.182;-1.644;2024-03-22T01:27:10;14.40;93.70
12622;DHT22;6376;48.182;-1.644;2024-03-22T01:29:35;14.30;93.60
12622;DHT22;6376;48.182;-1.644;2024-03-22T01:32:02;14.30;93.60
12622;DHT22;6376;48.182;-1.644;2024-03-22T01:34:27;14.30;93.50
12622;DHT22;6376;48.182;-1.644;2024-03-22T01:36:53;14.30;93.60
12622;DHT22;6376;48.182;-1.644;2024-03-22T01:39:20;14.30;93.60
12622;DHT22;6376;48.182;-1.644;2024-03-22T01:41:49;14.30;93.60
12622;DHT22;6376;48.182;-1.644;2024-03-22T01:44:15;14.30;93.60
12622;DHT22;6376;48.182;-1.644;2024-03-22T01:46:42;14.30;93.60
12622;DHT22;6376;48.182;-1.644;2024-03-22T01:49:12;14.30;93.60
12622;DHT22;6376;48.182;-1.644;2024-03-22T01:51:40;14.30;93.70
12622;DHT22;6376;48.182;-1.644;2024-03-22T01:54:09;14.30;93.70
12622;DHT22;6376;48.182;-1.644;2024-03-22T01:56:36;14.30;93.70
12622;DHT22;6376;48.182;-1.644;2024-03-22T01:59:03;14.30;93.60
12622;DHT22;6376;48.182;-1.644;2024-03-22T02:01:29;14.30;93.70
12622;DHT22;6376;48.182;-1.644;2024-03-22T02:03:55;14.30;93.70
12622;DHT22;6376;48.182;-1.644;2024-03-22T02:06:21;14.30;93.70
12622;DHT22;6376;48.182;-1.644;2024-03-22T02:08:46;14.30;93.70
12622;DHT22;6376;48.182;-1.644;2024-03-22T02:11:12;14.30;93.70
12622;DHT22;6376;48.182;-1.644;2024-03-22T02:13:38;14.20;93.70
12622;DHT22;6376;48.182;-1.644;2024-03-22T02:16:04;14.20;93.70
12622;DHT22;6376;48.182;-1.644;2024-03-22T02:18:30;14.20;93.70
12622;DHT22;6376;48.182;-1.644;2024-03-22T02:20:59;14.20;93.70
12622;DHT22;6376;48.182;-1.644;2024-03-22T02:23:34;14.20;93.70
12622;DHT22;6376;48.182;-1.644;2024-03-22T02:26:01;14.20;93.70
12622;DHT22;6376;48.182;-1.644;2024-03-22T02:28:27;14.20;93.70
12622;DHT22;6376;48.182;-1.644;2024-03-22T02:30:52;14.20;93.70
12622;DHT22;6376;48.182;-1.644;2024-03-22T02:33:18;14.20;93.70
12622;DHT22;6376;48.182;-1.644;2024-03-22T02:35:46;14.20;93.80
12622;DHT22;6376;48.182;-1.644;2024-03-22T02:38:12;14.20;93.80
12622;DHT22;6376;48.182;-1.644;2024-03-22T02:40:38;14.20;93.80
12622;DHT22;6376;48.182;-1.644;2024-03-22T02:43:03;14.20;93.80
12622;DHT22;6376;48.182;-1.644;2024-03-22T02:45:30;14.20;93.80
12622;DHT22;6376;48.182;-1.644;2024-03-22T02:47:56;14.20;93.80
12622;DHT22;6376;48.182;-1.644;2024-03-22T02:50:21;14.10;93.80
12622;DHT22;6376;48.182;-1.644;2024-03-22T02:52:48;14.10;93.90
12622;DHT22;6376;48.182;-1.644;2024-03-22T02:55:14;14.10;93.90
12622;DHT22;6376;48.182;-1.644;2024-03-22T02:57:40;14.10;93.90
12622;DHT22;6376;48.182;-1.644;2024-03-22T03:00:06;14.10;93.80
12622;DHT22;6376;48.182;-1.644;2024-03-22T03:02:32;14.10;93.80
12622;DHT22;6376;48.182;-1.644;2024-03-22T03:04:57;14.20;94.00
12622;DHT22;6376;48.182;-1.644;2024-03-22T03:07:24;14.10;93.90
12622;DHT22;6376;48.182;-1.644;2024-03-22T03:09:50;14.10;93.90
12622;DHT22;6376;48.182;-1.644;2024-03-22T03:12:16;14.20;93.90
12622;DHT22;6376;48.182;-1.644;2024-03-22T03:14:41;14.10;93.90
12622;DHT22;6376;48.182;-1.644;2024-03-22T03:17:07;14.10;94.00
12622;DHT22;6376;48.182;-1.644;2024-03-22T03:19:33;14.10;94.00
12622;DHT22;6376;48.182;-1.644;2024-03-22T03:21:59;14.10;94.00
12622;DHT22;6376;48.182;-1.644;2024-03-22T03:24:24;14.10;94.00
12622;DHT22;6376;48.182;-1.644;2024-03-22T03:26:50;14.10;94.00
12622;DHT22;6376;48.182;-1.644;2024-03-22T03:29:15;14.10;94.00
12622;DHT22;6376;48.182;-1.644;2024-03-22T03:31:41;14.10;94.00
12622;DHT22;6376;48.182;-1.644;2024-03-22T03:34:07;14.10;94.10
12622;DHT22;6376;48.182;-1.644;2024-03-22T03:36:32;14.10;94.10
12622;DHT22;6376;48.182;-1.644;2024-03-22T03:38:58;14.00;94.10
12622;DHT22;6376;48.182;-1.644;2024-03-22T03:41:23;14.00;94.00
12622;DHT22;6376;48.182;-1.644;2024-03-22T03:43:49;14.00;94.00
12622;DHT22;6376;48.182;-1.644;2024-03-22T03:46:15;14.00;94.00
12622;DHT22;6376;48.182;-1.644;2024-03-22T03:48:40;14.00;94.00
12622;DHT22;6376;48.182;-1.644;2024-03-22T03:51:06;14.00;94.00
12622;DHT22;6376;48.182;-1.644;2024-03-22T03:53:32;14.00;94.00
12622;DHT22;6376;48.182;-1.644;2024-03-22T03:55:57;14.00;94.00
12622;DHT22;6376;48.182;-1.644;2024-03-22T03:58:23;14.00;94.10
12622;DHT22;6376;48.182;-1.644;2024-03-22T04:00:48;14.00;94.10
12622;DHT22;6376;48.182;-1.644;2024-03-22T04:03:14;14.00;94.10
12622;DHT22;6376;48.182;-1.644;2024-03-22T04:05:40;14.00;94.00
12622;DHT22;6376;48.182;-1.644;2024-03-22T04:08:05;14.00;94.00
12622;DHT22;6376;48.182;-1.644;2024-03-22T04:10:31;14.00;94.40
12622;DHT22;6376;48.182;-1.644;2024-03-22T04:12:57;14.00;94.10
12622;DHT22;6376;48.182;-1.644;2024-03-22T04:15:23;14.00;94.10
12622;DHT22;6376;48.182;-1.644;2024-03-22T04:17:49;14.00;94.10
12622;DHT22;6376;48.182;-1.644;2024-03-22T04:20:14;14.00;94.20
12622;DHT22;6376;48.182;-1.644;2024-03-22T04:22:40;14.00;94.20
12622;DHT22;6376;48.182;-1.644;2024-03-22T04:25:06;14.00;94.20
12622;DHT22;6376;48.182;-1.644;2024-03-22T04:27:36;14.00;94.10
12622;DHT22;6376;48.182;-1.644;2024-03-22T04:30:02;13.90;94.10
12622;DHT22;6376;48.182;-1.644;2024-03-22T04:32:27;13.90;94.10
12622;DHT22;6376;48.182;-1.644;2024-03-22T04:34:53;13.90;94.20
12622;DHT22;6376;48.182;-1.644;2024-03-22T04:37:20;14.00;94.20
12622;DHT22;6376;48.182;-1.644;2024-03-22T04:39:46;13.90;94.20
12622;DHT22;6376;48.182;-1.644;2024-03-22T04:42:11;13.90;94.30
12622;DHT22;6376;48.182;-1.644;2024-03-22T04:44:37;13.90;94.20
12622;DHT22;6376;48.182;-1.644;2024-03-22T04:47:03;13.90;94.30
12622;DHT22;6376;48.182;-1.644;2024-03-22T04:49:28;13.90;94.20
12622;DHT22;6376;48.182;-1.644;2024-03-22T04:51:54;13.90;94.20
12622;DHT22;6376;48.182;-1.644;2024-03-22T04:54:20;13.90;94.20
12622;DHT22;6376;48.182;-1.644;2024-03-22T04:56:45;13.90;94.20
12622;DHT22;6376;48.182;-1.644;2024-03-22T04:59:11;13.90;94.20
12622;DHT22;6376;48.182;-1.644;2024-03-22T05:01:36;13.90;94.10
12622;DHT22;6376;48.182;-1.644;2024-03-22T05:04:02;13.90;94.10
12622;DHT22;6376;48.182;-1.644;2024-03-22T05:06:28;13.90;94.20
12622;DHT22;6376;48.182;-1.644;2024-03-22T05:08:53;13.90;94.10
12622;DHT22;6376;48.182;-1.644;2024-03-22T05:11:19;13.90;94.10
12622;DHT22;6376;48.182;-1.644;2024-03-22T05:13:45;13.90;94.20
12622;DHT22;6376;48.182;-1.644;2024-03-22T05:16:12;13.90;94.10
12622;DHT22;6376;48.182;-1.644;2024-03-22T05:18:37;13.90;94.10
12622;DHT22;6376;48.182;-1.644;2024-03-22T05:21:03;13.90;94.10
12622;DHT22;6376;48.182;-1.644;2024-03-22T05:23:29;13.90;94.10
12622;DHT22;6376;48.182;-1.644;2024-03-22T05:25:54;13.80;94.10
12622;DHT22;6376;48.182;-1.644;2024-03-22T05:28:20;13.90;94.50
12622;DHT22;6376;48.182;-1.644;2024-03-22T05:30:47;13.80;94.10
12622;DHT22;6376;48.182;-1.644;2024-03-22T05:33:13;13.80;94.10
12622;DHT22;6376;48.182;-1.644;2024-03-22T05:35:39;13.80;94.10
12622;DHT22;6376;48.182;-1.644;2024-03-22T05:38:04;13.90;94.20
12622;DHT22;6376;48.182;-1.644;2024-03-22T05:40:31;13.80;94.10
12622;DHT22;6376;48.182;-1.644;2024-03-22T05:42:56;13.80;94.10
12622;DHT22;6376;48.182;-1.644;2024-03-22T05:45:22;13.80;94.10
12622;DHT22;6376;48.182;-1.644;2024-03-22T05:47:48;13.80;94.10
12622;DHT22;6376;48.182;-1.644;2024-03-22T05:50:13;13.80;94.10
12622;DHT22;6376;48.182;-1.644;2024-03-22T05:52:40;13.80;94.10
12622;DHT22;6376;48.182;-1.644;2024-03-22T05:55:06;13.80;94.10
12622;DHT22;6376;48.182;-1.644;2024-03-22T05:57:32;13.80;94.20
12622;DHT22;6376;48.182;-1.644;2024-03-22T05:59:57;13.80;94.20
12622;DHT22;6376;48.182;-1.644;2024-03-22T06:02:23;13.90;94.20
12622;DHT22;6376;48.182;-1.644;2024-03-22T06:04:49;13.80;94.20
12622;DHT22;6376;48.182;-1.644;2024-03-22T06:07:14;13.80;94.20
12622;DHT22;6376;48.182;-1.644;2024-03-22T06:09:42;13.80;94.20
12622;DHT22;6376;48.182;-1.644;2024-03-22T06:12:17;13.80;94.30
12622;DHT22;6376;48.182;-1.644;2024-03-22T06:14:44;13.80;94.30
12622;DHT22;6376;48.182;-1.644;2024-03-22T06:17:10;13.80;94.20
12622;DHT22;6376;48.182;-1.644;2024-03-22T06:19:36;13.80;94.20
12622;DHT22;6376;48.182;-1.644;2024-03-22T06:22:02;13.80;94.20
12622;DHT22;6376;48.182;-1.644;2024-03-22T06:24:28;13.80;94.20
12622;DHT22;6376;48.182;-1.644;2024-03-22T06:26:54;13.80;94.30
12622;DHT22;6376;48.182;-1.644;2024-03-22T06:29:20;13.80;94.20
12622;DHT22;6376;48.182;-1.644;2024-03-22T06:31:45;13.70;94.20
12622;DHT22;6376;48.182;-1.644;2024-03-22T06:34:11;13.80;94.20
12622;DHT22;6376;48.182;-1.644;2024-03-22T06:36:36;13.80;94.30
12622;DHT22;6376;48.182;-1.644;2024-03-22T06:39:02;13.80;94.30
12622;DHT22;6376;48.182;-1.644;2024-03-22T06:41:32;13.70;94.20
12622;DHT22;6376;48.182;-1.644;2024-03-22T06:43:57;13.80;94.20
12622;DHT22;6376;48.182;-1.644;2024-03-22T06:46:23;13.70;94.20
12622;DHT22;6376;48.182;-1.644;2024-03-22T06:48:48;13.80;94.20
12622;DHT22;6376;48.182;-1.644;2024-03-22T06:51:14;13.70;94.20
12622;DHT22;6376;48.182;-1.644;2024-03-22T06:53:40;13.70;94.20
12622;DHT22;6376;48.182;-1.644;2024-03-22T06:56:05;13.80;94.20
12622;DHT22;6376;48.182;-1.644;2024-03-22T06:58:35;13.70;94.20
12622;DHT22;6376;48.182;-1.644;2024-03-22T07:01:00;13.80;94.30
12622;DHT22;6376;48.182;-1.644;2024-03-22T07:03:26;13.70;94.20
12622;DHT22;6376;48.182;-1.644;2024-03-22T07:05:52;13.70;94.20
12622;DHT22;6376;48.182;-1.644;2024-03-22T07:08:18;13.70;94.20
12622;DHT22;6376;48.182;-1.644;2024-03-22T07:10:44;13.70;94.20
12622;DHT22;6376;48.182;-1.644;2024-03-22T07:13:10;13.80;94.30
12622;DHT22;6376;48.182;-1.644;2024-03-22T07:15:36;13.70;94.50
12622;DHT22;6376;48.182;-1.644;2024-03-22T07:18:03;13.70;94.20
12622;DHT22;6376;48.182;-1.644;2024-03-22T07:20:30;13.70;94.20
12622;DHT22;6376;48.182;-1.644;2024-03-22T07:22:55;13.70;94.20
12622;DHT22;6376;48.182;-1.644;2024-03-22T07:25:21;13.70;94.20
12622;DHT22;6376;48.182;-1.644;2024-03-22T07:27:47;13.70;94.20
12622;DHT22;6376;48.182;-1.644;2024-03-22T07:30:14;13.70;94.20
12622;DHT22;6376;48.182;-1.644;2024-03-22T07:32:40;13.70;94.20
12622;DHT22;6376;48.182;-1.644;2024-03-22T07:35:06;13.70;94.20
12622;DHT22;6376;48.182;-1.644;2024-03-22T07:37:32;13.70;94.10
12622;DHT22;6376;48.182;-1.644;2024-03-22T07:39:59;13.70;94.20
12622;DHT22;6376;48.182;-1.644;2024-03-22T07:42:25;13.70;94.20
12622;DHT22;6376;48.182;-1.644;2024-03-22T07:44:51;13.70;94.20
12622;DHT22;6376;48.182;-1.644;2024-03-22T07:47:16;13.70;94.20
12622;DHT22;6376;48.182;-1.644;2024-03-22T07:49:42;13.70;94.20
12622;DHT22;6376;48.182;-1.644;2024-03-22T07:52:07;13.70;94.20
12622;DHT22;6376;48.182;-1.644;2024-03-22T07:54:33;13.70;94.20
12622;DHT22;6376;48.182;-1.644;2024-03-22T07:56:59;13.70;94.20
12622;DHT22;6376;48.182;-1.644;2024-03-22T07:59:24;13.70;94.20
12622;DHT22;6376;48.182;-1.644;2024-03-22T08:01:50;13.70;94.20
12622;DHT22;6376;48.182;-1.644;2024-03-22T08:04:16;13.70;94.20
12622;DHT22;6376;48.182;-1.644;2024-03-22T08:06:42;13.70;94.20
12622;DHT22;6376;48.182;-1.644;2024-03-22T08:09:07;13.70;94.20
12622;DHT22;6376;48.182;-1.644;2024-03-22T08:11:33;13.70;94.20
12622;DHT22;6376;48.182;-1.644;2024-03-22T08:13:59;13.70;94.20
12622;DHT22;6376;48.182;-1.644;2024-03-22T08:16:31;13.70;94.20
12622;DHT22;6376;48.182;-1.644;2024-03-22T08:18:57;13.70;94.20
12622;DHT22;6376;48.182;-1.644;2024-03-22T08:21:23;13.70;94.20
12622;DHT22;6376;48.182;-1.644;2024-03-22T08:23:53;13.70;94.50
12622;DHT22;6376;48.182;-1.644;2024-03-22T08:26:18;13.70;94.10
12622;DHT22;6376;48.182;-1.644;2024-03-22T08:28:47;13.70;94.20
12622;DHT22;6376;48.182;-1.644;2024-03-22T08:31:14;13.70;94.10
12622;DHT22;6376;48.182;-1.644;2024-03-22T08:33:40;13.70;94.10
12622;DHT22;6376;48.182;-1.644;2024-03-22T08:36:05;13.80;94.10
12622;DHT22;6376;48.182;-1.644;2024-03-22T08:38:31;13.80;94.10
12622;DHT22;6376;48.182;-1.644;2024-03-22T08:40:57;13.70;94.10
12622;DHT22;6376;48.182;-1.644;2024-03-22T08:43:22;13.80;94.10
12622;DHT22;6376;48.182;-1.644;2024-03-22T08:45:51;13.70;94.10
12622;DHT22;6376;48.182;-1.644;2024-03-22T08:48:17;13.80;94.00
12622;DHT22;6376;48.182;-1.644;2024-03-22T08:50:44;13.80;94.10
12622;DHT22;6376;48.182;-1.644;2024-03-22T08:53:10;13.70;94.00
12622;DHT22;6376;48.182;-1.644;2024-03-22T08:55:35;13.70;94.00
12622;DHT22;6376;48.182;-1.644;2024-03-22T08:58:02;13.80;94.00
12622;DHT22;6376;48.182;-1.644;2024-03-22T09:00:29;13.80;94.00
12622;DHT22;6376;48.182;-1.644;2024-03-22T09:02:54;13.80;93.90
12622;DHT22;6376;48.182;-1.644;2024-03-22T09:05:20;13.80;94.00
12622;DHT22;6376;48.182;-1.644;2024-03-22T09:07:46;13.80;94.00
12622;DHT22;6376;48.182;-1.644;2024-03-22T09:10:13;13.80;94.00
12622;DHT22;6376;48.182;-1.644;2024-03-22T09:12:39;13.80;94.00
12622;DHT22;6376;48.182;-1.644;2024-03-22T09:15:06;13.80;94.00
12622;DHT22;6376;48.182;-1.644;2024-03-22T09:17:32;13.80;93.90
12622;DHT22;6376;48.182;-1.644;2024-03-22T09:19:58;13.80;93.90
12622;DHT22;6376;48.182;-1.644;2024-03-22T09:22:24;13.80;93.90
12622;DHT22;6376;48.182;-1.644;2024-03-22T09:24:50;13.80;93.90
12622;DHT22;6376;48.182;-1.644;2024-03-22T09:27:15;13.80;93.90
12622;DHT22;6376;48.182;-1.644;2024-03-22T09:29:41;13.80;93.90
12622;DHT22;6376;48.182;-1.644;2024-03-22T09:32:09;13.80;93.90
12622;DHT22;6376;48.182;-1.644;2024-03-22T09:34:35;13.80;93.90
12622;DHT22;6376;48.182;-1.644;2024-03-22T09:37:00;13.80;94.20
12622;DHT22;6376;48.182;-1.644;2024-03-22T09:39:27;13.80;93.90
12622;DHT22;6376;48.182;-1.644;2024-03-22T09:41:57;13.80;93.90
12622;DHT22;6376;48.182;-1.644;2024-03-22T09:44:23;13.80;93.80
12622;DHT22;6376;48.182;-1.644;2024-03-22T09:46:50;13.80;93.90
12622;DHT22;6376;48.182;-1.644;2024-03-22T09:49:16;13.80;93.90
12622;DHT22;6376;48.182;-1.644;2024-03-22T09:51:43;13.80;93.90
12622;DHT22;6376;48.182;-1.644;2024-03-22T09:54:12;13.80;93.80
12622;DHT22;6376;48.182;-1.644;2024-03-22T09:56:42;13.80;93.80
12622;DHT22;6376;48.182;-1.644;2024-03-22T09:59:08;13.80;93.80
12622;DHT22;6376;48.182;-1.644;2024-03-22T10:01:36;13.80;93.80
12622;DHT22;6376;48.182;-1.644;2024-03-22T10:04:02;13.80;93.80
12622;DHT22;6376;48.182;-1.644;2024-03-22T10:06:29;13.80;93.80
12622;DHT22;6376;48.182;-1.644;2024-03-22T10:08:58;13.80;93.70
12622;DHT22;6376;48.182;-1.644;2024-03-22T10:11:29;13.90;93.70
12622;DHT22;6376;48.182;-1.644;2024-03-22T10:13:55;13.90;93.70
12622;DHT22;6376;48.182;-1.644;2024-03-22T10:16:24;13.90;93.60
12622;DHT22;6376;48.182;-1.644;2024-03-22T10:18:49;13.90;93.60
12622;DHT22;6376;48.182;-1.644;2024-03-22T10:21:18;13.90;93.60
12622;DHT22;6376;48.182;-1.644;2024-03-22T10:23:44;13.90;93.50
12622;DHT22;6376;48.182;-1.644;2024-03-22T10:26:12;14.00;93.60
12622;DHT22;6376;48.182;-1.644;2024-03-22T10:28:47;14.00;93.50
12622;DHT22;6376;48.182;-1.644;2024-03-22T10:31:13;14.00;93.60
12622;DHT22;6376;48.182;-1.644;2024-03-22T10:33:40;14.00;93.50
12622;DHT22;6376;48.182;-1.644;2024-03-22T10:36:07;14.00;93.50
12622;DHT22;6376;48.182;-1.644;2024-03-22T10:38:35;14.00;93.50
12622;DHT22;6376;48.182;-1.644;2024-03-22T10:41:01;14.00;93.40
12622;DHT22;6376;48.182;-1.644;2024-03-22T10:43:28;14.10;93.40
12622;DHT22;6376;48.182;-1.644;2024-03-22T10:45:56;14.10;93.30
12622;DHT22;6376;48.182;-1.644;2024-03-22T10:48:25;14.10;93.30
12622;DHT22;6376;48.182;-1.644;2024-03-22T10:50:55;14.10;93.20
12622;DHT22;6376;48.182;-1.644;2024-03-22T10:53:25;14.10;93.20
12622;DHT22;6376;48.182;-1.644;2024-03-22T10:55:51;14.20;93.00
12622;DHT22;6376;48.182;-1.644;2024-03-22T10:58:18;14.40;92.50
12622;DHT22;6376;48.182;-1.644;2024-03-22T11:00:46;14.80;92.00
12622;DHT22;6376;48.182;-1.644;2024-03-22T11:03:13;14.90;91.70
12622;DHT22;6376;48.182;-1.644;2024-03-22T11:05:49;15.10;91.50
12622;DHT22;6376;48.182;-1.644;2024-03-22T11:10:49;15.30;90.60
12622;DHT22;6376;48.182;-1.644;2024-03-22T11:13:16;15.40;90.40
12622;DHT22;6376;48.182;-1.644;2024-03-22T11:15:43;15.50;90.00
12622;DHT22;6376;48.182;-1.644;2024-03-22T11:18:09;15.60;89.70
12622;DHT22;6376;48.182;-1.644;2024-03-22T11:20:37;15.70;88.90
12622;DHT22;6376;48.182;-1.644;2024-03-22T11:23:06;15.80;88.80
12622;DHT22;6376;48.182;-1.644;2024-03-22T11:25:33;15.80;88.60
12622;DHT22;6376;48.182;-1.644;2024-03-22T11:27:59;15.90;87.70
12622;DHT22;6376;48.182;-1.644;2024-03-22T11:30:30;16.00;87.20
12622;DHT22;6376;48.182;-1.644;2024-03-22T11:32:56;16.10;86.80
12622;DHT22;6376;48.182;-1.644;2024-03-22T11:35:22;16.20;86.50
12622;DHT22;6376;48.182;-1.644;2024-03-22T11:37:49;16.20;86.50
12622;DHT22;6376;48.182;-1.644;2024-03-22T11:40:15;16.20;86.20
12622;DHT22;6376;48.182;-1.644;2024-03-22T11:42:43;16.30;85.90
12622;DHT22;6376;48.182;-1.644;2024-03-22T11:45:11;16.30;85.80
12622;DHT22;6376;48.182;-1.644;2024-03-22T11:47:37;16.20;86.90
12622;DHT22;6376;48.182;-1.644;2024-03-22T11:50:03;16.10;86.80
12622;DHT22;6376;48.182;-1.644;2024-03-22T11:52:29;15.90;87.30
12622;DHT22;6376;48.182;-1.644;2024-03-22T11:54:55;15.80;87.80
12622;DHT22;6376;48.182;-1.644;2024-03-22T11:57:22;15.70;88.30
12622;DHT22;6376;48.182;-1.644;2024-03-22T11:59:48;15.70;88.60
12622;DHT22;6376;48.182;-1.644;2024-03-22T12:02:14;15.60;88.90
12622;DHT22;6376;48.182;-1.644;2024-03-22T12:04:42;15.60;89.10
12622;DHT22;6376;48.182;-1.644;2024-03-22T12:07:10;15.60;89.20
12622;DHT22;6376;48.182;-1.644;2024-03-22T12:09:36;15.60;89.40
12622;DHT22;6376;48.182;-1.644;2024-03-22T12:12:04;15.60;89.70
12622;DHT22;6376;48.182;-1.644;2024-03-22T12:14:29;15.50;89.70
12622;DHT22;6376;48.182;-1.644;2024-03-22T12:16:55;15.50;89.70
12622;DHT22;6376;48.182;-1.644;2024-03-22T12:19:20;15.50;89.80
12622;DHT22;6376;48.182;-1.644;2024-03-22T12:21:46;15.50;90.00
12622;DHT22;6376;48.182;-1.644;2024-03-22T12:24:12;15.50;90.00
12622;DHT22;6376;48.182;-1.644;2024-03-22T12:26:37;15.40;90.00
12622;DHT22;6376;48.182;-1.644;2024-03-22T12:29:03;15.40;90.00
12622;DHT22;6376;48.182;-1.644;2024-03-22T12:31:29;15.40;90.20
12622;DHT22;6376;48.182;-1.644;2024-03-22T12:33:55;15.40;90.20
12622;DHT22;6376;48.182;-1.644;2024-03-22T12:36:21;15.30;90.20
12622;DHT22;6376;48.182;-1.644;2024-03-22T12:38:46;15.30;90.20
12622;DHT22;6376;48.182;-1.644;2024-03-22T12:41:12;15.30;90.20
12622;DHT22;6376;48.182;-1.644;2024-03-22T12:43:38;15.30;90.30
12622;DHT22;6376;48.182;-1.644;2024-03-22T12:46:03;15.30;90.40
12622;DHT22;6376;48.182;-1.644;2024-03-22T12:48:29;15.30;90.30
12622;DHT22;6376;48.182;-1.644;2024-03-22T12:50:54;15.20;90.30
12622;DHT22;6376;48.182;-1.644;2024-03-22T12:53:20;15.30;90.40
12622;DHT22;6376;48.182;-1.644;2024-03-22T12:55:46;15.20;90.40
12622;DHT22;6376;48.182;-1.644;2024-03-22T12:58:11;15.20;90.40
12622;DHT22;6376;48.182;-1.644;2024-03-22T13:00:37;15.20;90.50
12622;DHT22;6376;48.182;-1.644;2024-03-22T13:03:03;15.20;90.60
12622;DHT22;6376;48.182;-1.644;2024-03-22T13:05:28;15.20;90.50
12622;DHT22;6376;48.182;-1.644;2024-03-22T13:07:55;15.20;90.50
12622;DHT22;6376;48.182;-1.644;2024-03-22T13:10:21;15.10;90.50
12622;DHT22;6376;48.182;-1.644;2024-03-22T13:12:46;15.10;90.60
12622;DHT22;6376;48.182;-1.644;2024-03-22T13:15:13;15.10;90.50
12622;DHT22;6376;48.182;-1.644;2024-03-22T13:17:39;15.10;90.50
12622;DHT22;6376;48.182;-1.644;2024-03-22T13:20:05;15.10;90.60
12622;DHT22;6376;48.182;-1.644;2024-03-22T13:22:37;15.10;90.60
12622;DHT22;6376;48.182;-1.644;2024-03-22T13:25:03;15.10;90.60
12622;DHT22;6376;48.182;-1.644;2024-03-22T13:27:32;15.10;90.60
12622;DHT22;6376;48.182;-1.644;2024-03-22T13:29:58;15.10;90.60
12622;DHT22;6376;48.182;-1.644;2024-03-22T13:32:23;15.10;90.80
12622;DHT22;6376;48.182;-1.644;2024-03-22T13:34:49;15.00;90.70
12622;DHT22;6376;48.182;-1.644;2024-03-22T13:37:15;15.00;90.70
12622;DHT22;6376;48.182;-1.644;2024-03-22T13:39:41;15.10;90.70
12622;DHT22;6376;48.182;-1.644;2024-03-22T13:42:07;15.10;90.70
12622;DHT22;6376;48.182;-1.644;2024-03-22T13:44:33;15.10;90.70
12622;DHT22;6376;48.182;-1.644;2024-03-22T13:46:59;15.00;90.80
12622;DHT22;6376;48.182;-1.644;2024-03-22T13:49:25;15.00;90.80
12622;DHT22;6376;48.182;-1.644;2024-03-22T13:51:50;15.00;90.80
12622;DHT22;6376;48.182;-1.644;2024-03-22T13:54:16;15.00;90.90
12622;DHT22;6376;48.182;-1.644;2024-03-22T13:56:43;15.00;90.90
12622;DHT22;6376;48.182;-1.644;2024-03-22T13:59:08;15.00;90.90
12622;DHT22;6376;48.182;-1.644;2024-03-22T14:01:37;15.00;90.90
12622;DHT22;6376;48.182;-1.644;2024-03-22T14:04:04;15.00;91.00
12622;DHT22;6376;48.182;-1.644;2024-03-22T14:06:31;15.00;91.00
12622;DHT22;6376;48.182;-1.644;2024-03-22T14:08:57;15.00;90.90
12622;DHT22;6376;48.182;-1.644;2024-03-22T14:11:27;15.00;90.90
12622;DHT22;6376;48.182;-1.644;2024-03-22T14:13:53;15.00;91.00
12622;DHT22;6376;48.182;-1.644;2024-03-22T14:16:19;15.00;90.90
12622;DHT22;6376;48.182;-1.644;2024-03-22T14:18:44;15.10;90.90
12622;DHT22;6376;48.182;-1.644;2024-03-22T14:21:10;15.10;90.90
12622;DHT22;6376;48.182;-1.644;2024-03-22T14:23:39;15.10;90.80
12622;DHT22;6376;48.182;-1.644;2024-03-22T14:26:05;15.20;90.90
12622;DHT22;6376;48.182;-1.644;2024-03-22T14:28:30;15.20;90.60
12622;DHT22;6376;48.182;-1.644;2024-03-22T14:30:56;15.20;90.60
12622;DHT22;6376;48.182;-1.644;2024-03-22T14:33:22;15.20;90.60
12622;DHT22;6376;48.182;-1.644;2024-03-22T14:35:47;15.20;90.60
12622;DHT22;6376;48.182;-1.644;2024-03-22T14:38:14;15.20;90.60
12622;DHT22;6376;48.182;-1.644;2024-03-22T14:40:39;15.20;90.50
12622;DHT22;6376;48.182;-1.644;2024-03-22T14:43:05;15.30;90.50
12622;DHT22;6376;48.182;-1.644;2024-03-22T14:45:31;15.30;90.60
12622;DHT22;6376;48.182;-1.644;2024-03-22T14:47:57;15.30;90.50
12622;DHT22;6376;48.182;-1.644;2024-03-22T14:50:23;15.30;90.50
12622;DHT22;6376;48.182;-1.644;2024-03-22T14:52:49;15.30;90.60
12622;DHT22;6376;48.182;-1.644;2024-03-22T14:55:15;15.30;90.50
12622;DHT22;6376;48.182;-1.644;2024-03-22T14:57:41;15.30;90.50
12622;DHT22;6376;48.182;-1.644;2024-03-22T15:00:07;15.30;90.50
12622;DHT22;6376;48.182;-1.644;2024-03-22T15:02:37;15.30;90.50
12622;DHT22;6376;48.182;-1.644;2024-03-22T15:05:03;15.20;90.50
12622;DHT22;6376;48.182;-1.644;2024-03-22T15:07:30;15.20;90.50
12622;DHT22;6376;48.182;-1.644;2024-03-22T15:09:55;15.20;90.40
12622;DHT22;6376;48.182;-1.644;2024-03-22T15:12:21;15.30;90.50
12622;DHT22;6376;48.182;-1.644;2024-03-22T15:14:47;15.30;90.40
12622;DHT22;6376;48.182;-1.644;2024-03-22T15:17:12;15.20;90.40
12622;DHT22;6376;48.182;-1.644;2024-03-22T15:19:41;15.30;90.50
12622;DHT22;6376;48.182;-1.644;2024-03-22T15:22:08;15.20;90.60
12622;DHT22;6376;48.182;-1.644;2024-03-22T15:24:34;15.20;90.60
12622;DHT22;6376;48.182;-1.644;2024-03-22T15:26:59;15.20;90.60